Time;durP1;ratioP1;P1;durP2;ratioP2;P2;SDS_P1;SDS_P2;PMS_P1;PMS_P2;Temp;Humidity;BMP_temperature;BMP_pressure;BME280_temperature;BME280_humidity;BME280_pressure;Samples;Min_cycle;Max_cycle;Signal;HPM_P1;HPM_P2
2022/06/20 00:00:37;;;;;;;3.55;0.90;;;13.50;99.90;;;;;;5092664;28;20109;-74
2022/06/20 00:03:04;;;;;;;4.05;1.38;;;13.50;99.90;;;;;;5092144;28;20042;-74
2022/06/20 00:05:33;;;;;;;4.50;1.20;;;13.50;99.90;;;;;;5069227;28;20051;-74
2022/06/20 00:07:59;;;;;;;3.97;1.30;;;13.50;99.90;;;;;;5084344;28;20090;-74
2022/06/20 00:10:28;;;;;;;1.25;0.70;;;13.40;99.90;;;;;;5080251;28;20143;-74
2022/06/20 00:12:54;;;;;;;3.13;1.27;;;13.40;99.90;;;;;;5072838;28;20056;-74
2022/06/20 00:15:34;;;;;;;4.72;1.27;;;13.40;99.90;;;;;;5062230;28;20183;-74
2022/06/20 00:18:02;;;;;;;2.75;1.00;;;13.40;99.90;;;;;;5069372;28;20060;-73
2022/06/20 00:20:29;;;;;;;2.28;0.77;;;13.40;99.90;;;;;;5079718;28;20087;-73
2022/06/20 00:22:55;;;;;;;;;;;13.30;99.90;;;;;;5054499;28;20047;-73
2022/06/20 00:25:21;;;;;;;1.90;0.90;;;13.40;99.90;;;;;;5074474;28;20003;-73
2022/06/20 00:27:48;;;;;;;1.40;0.70;;;13.40;99.90;;;;;;5072474;28;20459;-73
2022/06/20 00:30:15;;;;;;;;;;;13.40;99.90;;;;;;5090500;28;20093;-70
2022/06/20 00:32:41;;;;;;;2.83;0.95;;;13.30;99.90;;;;;;5074154;28;19924;-70
2022/06/20 00:35:07;;;;;;;3.40;1.13;;;13.20;99.90;;;;;;5083025;28;20051;-70
2022/06/20 00:37:32;;;;;;;7.13;1.55;;;13.30;99.90;;;;;;5084565;28;20046;-70
2022/06/20 00:39:58;;;;;;;3.50;0.95;;;13.30;99.90;;;;;;5082470;28;20048;-70
2022/06/20 00:42:25;;;;;;;2.40;0.80;;;13.30;99.90;;;;;;5077509;28;20472;-70
2022/06/20 00:44:56;;;;;;;2.08;0.60;;;13.30;99.90;;;;;;5073793;28;20044;-70
2022/06/20 00:47:26;;;;;;;1.60;0.80;;;13.30;99.90;;;;;;5080866;28;20032;-70
2022/06/20 00:50:16;;;;;;;2.28;0.63;;;13.20;99.90;;;;;;5069924;28;20037;-70
2022/06/20 00:52:46;;;;;;;1.25;0.55;;;13.20;99.90;;;;;;5073669;28;21081;-70
2022/06/20 00:55:46;;;;;;;2.40;0.80;;;13.10;99.90;;;;;;5076022;28;20047;-70
2022/06/20 00:58:27;;;;;;;3.70;1.08;;;13.10;99.90;;;;;;5085005;28;20045;-70
2022/06/20 01:00:53;;;;;;;2.38;0.85;;;13.10;99.90;;;;;;5076146;28;20090;-70
2022/06/20 01:03:26;;;;;;;2.83;0.90;;;13.10;99.90;;;;;;5077659;28;20490;-70
2022/06/20 01:06:16;;;;;;;1.83;0.70;;;13.10;99.90;;;;;;5077987;28;20044;-70
2022/06/20 01:08:46;;;;;;;2.38;0.75;;;13.10;99.90;;;;;;5069718;28;20049;-70
2022/06/20 01:11:12;;;;;;;4.07;1.00;;;13.00;99.90;;;;;;5071498;28;20051;-70
2022/06/20 01:13:37;;;;;;;1.88;0.85;;;13.10;99.90;;;;;;5078175;28;20040;-70
2022/06/20 01:16:12;;;;;;;2.65;0.70;;;13.00;99.90;;;;;;5075183;28;20055;-70
2022/06/20 01:18:40;;;;;;;3.05;0.70;;;12.90;99.90;;;;;;5073257;28;20075;-70
2022/06/20 01:21:14;;;;;;;2.25;0.93;;;12.90;99.90;;;;;;5075506;28;20150;-69
2022/06/20 01:24:05;;;;;;;3.83;0.85;;;12.90;99.90;;;;;;5072771;28;20040;-69
2022/06/20 01:26:52;;;;;;;2.83;0.80;;;12.70;99.90;;;;;;5088790;28;20060;-70
2022/06/20 01:29:18;;;;;;;;;;;12.70;99.90;;;;;;5073084;28;20067;-70
2022/06/20 01:31:54;;;;;;;3.50;0.90;;;12.60;99.90;;;;;;5064855;28;19935;-70
2022/06/20 01:34:20;;;;;;;;;;;12.60;99.90;;;;;;5082953;28;20730;-70
2022/06/20 01:39:38;;;;;;;1.13;0.68;;;12.50;99.90;;;;;;5080773;28;20525;-70
2022/06/20 01:42:21;;;;;;;1.48;0.70;;;12.40;99.90;;;;;;5070773;28;20045;-70
2022/06/20 01:45:02;;;;;;;2.03;0.80;;;12.30;99.90;;;;;;5072271;28;20047;-70
2022/06/20 01:47:28;;;;;;;3.72;0.85;;;12.20;99.90;;;;;;5061794;28;20348;-70
2022/06/20 01:50:00;;;;;;;2.95;1.05;;;12.20;99.90;;;;;;5061226;28;20085;-70
2022/06/20 01:52:44;;;;;;;3.63;0.98;;;12.10;99.90;;;;;;5075797;28;20048;-70
2022/06/20 01:55:17;;;;;;;2.75;1.00;;;12.00;99.90;;;;;;5062644;28;20506;-70
2022/06/20 01:57:46;;;;;;;1.42;0.68;;;12.10;99.90;;;;;;5076790;28;20055;-71
2022/06/20 02:00:18;;;;;;;2.83;0.93;;;12.10;99.90;;;;;;5081810;28;20055;-70
2022/06/20 02:02:51;;;;;;;1.65;0.70;;;12.10;99.90;;;;;;5068717;28;20044;-70
2022/06/20 02:05:20;;;;;;;2.72;1.02;;;12.10;99.90;;;;;;5068129;28;20119;-70
2022/06/20 02:07:47;;;;;;;1.58;0.63;;;12.10;99.90;;;;;;5068995;28;20191;-70
2022/06/20 02:10:24;;;;;;;;;;;12.20;99.90;;;;;;5043575;28;20040;-70
2022/06/20 02:12:51;;;;;;;2.80;0.77;;;12.20;99.90;;;;;;5069599;28;20383;-70
2022/06/20 02:15:21;;;;;;;3.42;1.05;;;12.20;99.90;;;;;;5067604;28;20048;-70
2022/06/20 02:17:50;;;;;;;3.50;1.00;;;12.30;99.90;;;;;;5067441;28;20056;-69
2022/06/20 02:20:22;;;;;;;3.70;0.90;;;12.30;99.90;;;;;;5056932;28;20063;-70
2022/06/20 02:22:50;;;;;;;4.30;1.55;;;12.40;99.90;;;;;;5086266;28;20036;-69
2022/06/20 02:25:21;;;;;;;2.40;1.00;;;12.40;99.90;;;;;;5069890;28;20036;-69
2022/06/20 02:27:50;;;;;;;3.85;1.00;;;12.50;99.90;;;;;;5060565;28;20354;-69
2022/06/20 02:30:17;;;;;;;3.08;0.90;;;12.50;99.90;;;;;;5065787;28;20175;-70
2022/06/20 02:32:55;;;;;;;;;;;12.50;99.90;;;;;;5067959;28;20051;-70
2022/06/20 02:35:21;;;;;;;3.45;1.10;;;12.50;99.90;;;;;;5067494;28;19931;-70
2022/06/20 02:37:48;;;;;;;;;;;12.60;99.90;;;;;;5068151;28;20040;-70
2022/06/20 02:40:17;;;;;;;2.95;1.02;;;12.60;99.90;;;;;;5066405;28;20015;-70
2022/06/20 02:42:57;;;;;;;2.83;1.17;;;12.50;99.90;;;;;;5068135;28;20033;-70
2022/06/20 02:45:25;;;;;;;4.50;1.10;;;12.50;99.90;;;;;;5078801;28;20389;-70
2022/06/20 02:47:55;;;;;;;5.95;1.30;;;12.50;99.90;;;;;;5064901;28;20380;-69
2022/06/20 02:50:26;;;;;;;2.78;1.00;;;12.40;99.90;;;;;;5067712;28;20515;-70
2022/06/20 02:53:00;;;;;;;2.00;0.70;;;12.30;99.90;;;;;;5082150;28;20044;-69
2022/06/20 02:55:27;;;;;;;1.45;0.80;;;12.30;99.90;;;;;;5068328;28;20044;-70
2022/06/20 02:57:58;;;;;;;1.75;0.70;;;12.20;99.90;;;;;;5067231;28;20480;-70
2022/06/20 03:00:48;;;;;;;2.20;0.60;;;12.20;99.90;;;;;;5077247;28;20049;-70
2022/06/20 03:03:19;;;;;;;2.10;0.70;;;12.10;99.90;;;;;;5076693;28;20116;-70
2022/06/20 03:05:45;;;;;;;1.55;0.60;;;12.00;99.90;;;;;;5081808;28;20032;-70
2022/06/20 03:08:14;;;;;;;0.73;0.40;;;11.90;99.90;;;;;;5068798;28;20132;-70
2022/06/20 03:10:44;;;;;;;1.38;0.60;;;11.90;99.90;;;;;;5062230;28;20037;-70
2022/06/20 03:13:11;;;;;;;1.33;0.45;;;11.80;99.90;;;;;;5079644;28;20032;-70
2022/06/20 03:15:39;;;;;;;1.58;0.50;;;11.80;99.90;;;;;;5084159;28;20097;-70
2022/06/20 03:18:06;;;;;;;1.83;0.50;;;11.80;99.90;;;;;;5064654;28;20515;-69
2022/06/20 03:20:33;;;;;;;0.65;0.30;;;11.70;99.90;;;;;;5066707;28;20048;-69
2022/06/20 03:23:11;;;;;;;1.40;0.40;;;11.60;99.90;;;;;;5062098;28;20082;-70
2022/06/20 03:25:39;;;;;;;0.90;0.32;;;11.60;99.90;;;;;;5050340;28;20036;-69
2022/06/20 03:28:07;;;;;;;0.77;0.43;;;11.50;99.90;;;;;;5085897;28;20032;-69
2022/06/20 03:30:36;;;;;;;0.98;0.50;;;11.50;99.90;;;;;;5070714;28;20427;-70
2022/06/20 03:33:05;;;;;;;0.68;0.40;;;11.40;99.90;;;;;;5080023;28;20036;-70
2022/06/20 03:35:32;;;;;;;1.42;0.60;;;11.30;99.90;;;;;;5083594;28;20060;-70
2022/06/20 03:38:01;;;;;;;1.10;0.40;;;11.30;99.90;;;;;;5089195;28;20044;-70
2022/06/20 03:40:27;;;;;;;0.70;0.40;;;11.30;99.90;;;;;;5088777;28;20120;-70
2022/06/20 03:42:56;;;;;;;1.45;0.50;;;11.30;99.90;;;;;;5072502;28;20442;-70
2022/06/20 03:45:24;;;;;;;1.58;0.50;;;11.20;99.90;;;;;;5084384;28;20132;-70
2022/06/20 03:48:04;;;;;;;0.65;0.40;;;11.20;99.90;;;;;;5086439;28;20593;-70
2022/06/20 03:50:44;;;;;;;0.77;0.40;;;11.30;99.90;;;;;;5071561;28;20048;-70
2022/06/20 03:53:19;;;;;;;1.00;0.40;;;11.20;99.90;;;;;;5069919;28;20048;-70
2022/06/20 03:55:51;;;;;;;0.43;0.30;;;11.20;99.90;;;;;;5070307;28;20483;-70
2022/06/20 03:58:23;;;;;;;0.70;0.35;;;11.20;99.90;;;;;;5071983;28;20071;-70
2022/06/20 04:01:18;;;;;;;0.55;0.30;;;11.20;99.90;;;;;;5046914;28;20079;-70
2022/06/20 04:03:53;;;;;;;1.50;0.50;;;11.30;99.90;;;;;;5065278;28;20656;-70
2022/06/20 04:06:27;;;;;;;0.93;0.40;;;11.30;99.90;;;;;;5069404;28;20102;-70
2022/06/20 04:12:26;;;;;;;2.55;0.80;;;11.30;99.90;;;;;;5067318;28;20063;-70
2022/06/20 04:15:09;;;;;;;3.35;0.93;;;11.30;99.90;;;;;;5074014;28;20504;-70
2022/06/20 04:20:35;;;;;;;1.85;0.90;;;11.30;99.90;;;;;;5069451;28;20067;-69
2022/06/20 04:23:03;;;;;;;1.50;0.85;;;11.40;99.90;;;;;;5070300;28;20075;-69
2022/06/20 04:25:39;;;;;;;2.25;0.80;;;11.40;99.90;;;;;;5073144;28;20033;-69
2022/06/20 04:28:12;;;;;;;1.85;0.85;;;11.40;99.90;;;;;;5070478;28;20044;-70
2022/06/20 04:30:54;;;;;;;2.13;0.88;;;11.40;99.90;;;;;;5069501;28;20036;-69
2022/06/20 04:33:30;;;;;;;4.53;1.40;;;11.40;99.90;;;;;;5068734;28;20557;-70
2022/06/20 04:36:22;;;;;;;5.00;1.52;;;11.50;99.90;;;;;;5071391;28;20495;-69
2022/06/20 04:38:53;;;;;;;3.55;1.40;;;11.50;99.90;;;;;;5063867;28;20047;-69
2022/06/20 04:41:35;;;;;;;4.28;1.85;;;11.70;99.90;;;;;;5069787;28;20464;-69
2022/06/20 04:44:10;;;;;;;3.65;1.52;;;11.70;99.90;;;;;;5070286;28;20078;-69
2022/06/20 04:46:44;;;;;;;4.40;1.30;;;11.80;99.90;;;;;;5069610;28;20122;-69
2022/06/20 04:49:15;;;;;;;6.72;1.80;;;11.80;99.90;;;;;;5070128;28;20048;-69
2022/06/20 04:51:45;;;;;;;3.45;1.40;;;11.80;99.90;;;;;;5073321;28;20060;-69
2022/06/20 04:54:15;;;;;;;4.95;1.40;;;11.80;99.90;;;;;;5069942;28;20076;-69
2022/06/20 04:56:42;;;;;;;5.13;1.33;;;11.90;99.90;;;;;;5070216;28;20044;-69
2022/06/20 04:59:13;;;;;;;3.90;1.20;;;11.80;99.90;;;;;;5057064;28;20520;-69
2022/06/20 05:01:39;;;;;;;3.60;1.10;;;11.90;99.90;;;;;;5056360;28;20033;-69
2022/06/20 05:04:23;;;;;;;4.45;1.60;;;11.90;99.90;;;;;;5049686;28;20037;-69
2022/06/20 05:06:50;;;;;;;2.97;1.30;;;11.90;99.90;;;;;;5067835;28;20029;-69
2022/06/20 05:09:37;;;;;;;3.72;1.65;;;11.90;99.90;;;;;;5056773;28;20041;-69
2022/06/20 05:12:17;;;;;;;3.63;1.50;;;12.10;99.90;;;;;;5069142;28;20132;-69
2022/06/20 05:14:52;;;;;;;4.90;1.58;;;12.20;99.90;;;;;;5051572;28;20041;-69
2022/06/20 05:17:23;;;;;;;5.20;1.95;;;12.30;99.90;;;;;;5054157;28;20060;-69
2022/06/20 05:19:53;;;;;;;4.95;2.15;;;12.40;99.90;;;;;;5063872;28;20116;-69
2022/06/20 05:22:26;;;;;;;7.20;2.42;;;12.50;99.90;;;;;;5070230;28;20037;-69
2022/06/20 05:24:54;;;;;;;10.45;2.53;;;12.70;99.90;;;;;;5069469;28;20037;-69
2022/06/20 05:27:25;;;;;;;6.63;2.30;;;12.80;99.90;;;;;;5069802;28;20206;-70
2022/06/20 05:29:52;;;;;;;10.02;3.20;;;12.80;99.90;;;;;;5068065;28;20066;-69
2022/06/20 05:32:40;;;;;;;8.43;2.95;;;12.90;99.90;;;;;;5068569;28;20032;-70
2022/06/20 05:35:13;;;;;;;;;;;13.00;99.90;;;;;;5070559;28;20079;-70
2022/06/20 05:38:03;;;;;;;7.97;2.60;;;13.10;99.90;;;;;;5068874;28;19917;-70
2022/06/20 05:40:30;;;;;;;7.75;2.63;;;13.20;99.90;;;;;;5067679;28;20044;-70
2022/06/20 05:42:56;;;;;;;11.05;3.50;;;13.20;99.90;;;;;;5069125;28;20364;-70
2022/06/20 05:45:23;;;;;;;;;;;13.20;99.90;;;;;;5058835;28;20464;-70
2022/06/20 05:47:54;;;;;;;9.93;3.03;;;13.20;99.90;;;;;;5067342;28;19920;-70
2022/06/20 05:50:59;;;;;;;8.88;2.67;;;13.30;99.90;;;;;;5068208;28;20094;-70
2022/06/20 05:53:29;;;;;;;4.90;2.10;;;13.30;99.90;;;;;;5067731;28;20098;-71
2022/06/20 05:55:57;;;;;;;8.35;2.50;;;13.40;99.90;;;;;;5065922;28;20039;-69
2022/06/20 05:58:28;;;;;;;7.25;2.38;;;13.50;99.90;;;;;;5067839;28;20044;-71
2022/06/20 06:00:57;;;;;;;6.35;2.22;;;13.60;99.90;;;;;;5067505;28;20055;-70
2022/06/20 06:03:31;;;;;;;9.57;2.65;;;13.70;99.90;;;;;;5071178;28;20480;-70
2022/06/20 06:06:02;;;;;;;6.05;2.42;;;13.90;99.90;;;;;;5059787;28;20120;-70
2022/06/20 06:08:40;;;;;;;8.90;2.45;;;14.00;99.90;;;;;;5066127;28;20098;-70
2022/06/20 06:11:25;;;;;;;6.88;2.50;;;14.20;99.90;;;;;;5073902;28;21579;-70
2022/06/20 06:14:24;;;;;;;9.32;2.70;;;14.20;99.90;;;;;;5062016;28;20095;-69
2022/06/20 06:17:02;;;;;;;10.40;2.67;;;14.40;99.90;;;;;;5065997;28;20193;-70
2022/06/20 06:19:51;;;;;;;8.25;2.35;;;14.60;99.90;;;;;;5068520;28;20059;-71
2022/06/20 06:22:49;;;;;;;9.07;2.50;;;14.70;99.90;;;;;;5085363;28;20101;-70
2022/06/20 06:25:28;;;;;;;;;;;14.70;99.90;;;;;;5061008;28;20040;-71
2022/06/20 06:27:58;;;;;;;7.80;2.42;;;14.80;99.90;;;;;;5069067;28;19916;-71
2022/06/20 06:30:30;;;;;;;7.38;2.45;;;15.00;99.90;;;;;;5085940;28;20055;-71
2022/06/20 06:32:56;;;;;;;7.75;2.33;;;15.00;99.90;;;;;;5052737;28;20044;-70
2022/06/20 06:35:43;;;;;;;12.18;2.20;;;15.10;99.90;;;;;;5068822;28;20040;-71
2022/06/20 06:38:16;;;;;;;10.43;2.70;;;14.90;99.90;;;;;;5069274;28;20044;-71
2022/06/20 06:40:49;;;;;;;4.65;1.90;;;14.70;99.90;;;;;;5068891;28;20043;-70
2022/06/20 06:43:38;;;;;;;6.63;2.40;;;14.70;99.90;;;;;;5069096;28;20076;-71
2022/06/20 06:46:10;;;;;;;7.50;2.22;;;14.60;99.90;;;;;;5068984;28;20043;-71
2022/06/20 06:49:18;;;;;;;7.82;2.50;;;14.60;99.90;;;;;;5068821;28;20036;-70
2022/06/20 06:52:11;;;;;;;7.88;3.00;;;14.60;99.90;;;;;;4995239;28;20037;-71
2022/06/20 06:54:57;;;;;;;9.40;2.38;;;14.50;99.90;;;;;;5050862;28;20170;-71
2022/06/20 06:57:38;;;;;;;8.00;2.53;;;14.40;99.90;;;;;;5068755;28;20495;-71
2022/06/20 07:00:04;;;;;;;6.95;2.85;;;14.50;99.90;;;;;;5081634;28;20573;-71
2022/06/20 07:02:35;;;;;;;6.32;1.92;;;14.80;99.90;;;;;;5063025;28;20123;-70
2022/06/20 07:05:09;;;;;;;7.00;2.47;;;15.00;99.90;;;;;;5073520;28;20048;-70
2022/06/20 07:07:42;;;;;;;8.73;2.72;;;15.30;99.90;;;;;;5090400;28;20187;-70
2022/06/20 07:10:26;;;;;;;5.65;2.03;;;15.20;99.90;;;;;;5072868;28;20083;-70
2022/06/20 07:12:57;;;;;;;5.47;2.00;;;15.10;99.90;;;;;;5073136;28;20036;-71
2022/06/20 07:15:24;;;;;;;5.15;2.13;;;15.20;99.90;;;;;;5089767;28;20475;-70
2022/06/20 07:17:54;;;;;;;7.50;2.70;;;15.50;99.90;;;;;;5072805;28;20064;-70
2022/06/20 07:20:28;;;;;;;5.05;1.90;;;15.60;99.90;;;;;;5089590;28;20037;-70
2022/06/20 07:22:54;;;;;;;5.85;1.92;;;15.80;99.90;;;;;;5073160;28;20453;-70
2022/06/20 07:25:34;;;;;;;4.28;1.45;;;15.60;99.90;;;;;;5073043;28;20059;-70
2022/06/20 07:28:49;;;;;;;6.50;2.05;;;15.30;99.90;;;;;;5072999;28;20094;-71
2022/06/20 07:31:28;;;;;;;5.72;1.75;;;15.10;99.90;;;;;;5041872;28;20080;-71
2022/06/20 07:34:22;;;;;;;5.45;1.60;;;15.30;99.90;;;;;;5086349;28;20069;-71
2022/06/20 07:36:53;;;;;;;3.90;1.50;;;15.60;99.90;;;;;;5089906;28;20486;-71
2022/06/20 07:39:25;;;;;;;4.00;1.40;;;16.00;99.90;;;;;;5072773;28;20115;-71
2022/06/20 07:42:07;;;;;;;5.32;1.60;;;15.90;99.90;;;;;;5089626;28;20376;-71
2022/06/20 07:44:47;;;;;;;5.88;1.88;;;15.90;99.90;;;;;;5055836;28;20041;-71
2022/06/20 07:47:37;;;;;;;4.65;1.60;;;15.50;99.90;;;;;;5089367;28;20048;-70
2022/06/20 07:50:08;;;;;;;5.45;1.90;;;15.40;99.90;;;;;;5055640;28;20056;-71
2022/06/20 07:52:54;;;;;;;6.35;1.83;;;15.50;99.90;;;;;;5089470;28;20040;-70
2022/06/20 07:55:24;;;;;;;4.75;1.20;;;15.40;99.90;;;;;;5055619;28;20087;-71
2022/06/20 07:58:07;;;;;;;7.32;1.63;;;15.50;99.90;;;;;;5055543;28;20044;-70
2022/06/20 08:00:53;;;;;;;4.90;1.20;;;15.70;99.90;;;;;;5080861;28;20041;-71
2022/06/20 08:03:31;;;;;;;6.03;1.30;;;16.00;99.90;;;;;;5086107;28;20044;-70
2022/06/20 08:06:14;;;;;;;4.53;1.25;;;16.20;99.90;;;;;;5072115;28;20048;-71
2022/06/20 08:08:52;;;;;;;3.13;1.08;;;16.60;99.90;;;;;;5071949;28;20064;-71
2022/06/20 08:11:42;;;;;;;4.15;1.38;;;16.90;99.90;;;;;;5088951;28;20045;-71
2022/06/20 08:14:30;;;;;;;6.15;1.20;;;17.00;99.90;;;;;;5088735;28;20135;-72
2022/06/20 08:17:04;;;;;;;3.50;1.20;;;16.40;99.90;;;;;;5071558;28;20060;-69
2022/06/20 08:19:31;;;;;;;3.97;1.30;;;16.20;99.90;;;;;;5088322;28;20068;-71
2022/06/20 08:22:07;;;;;;;3.63;1.35;;;16.30;99.90;;;;;;5088213;28;20408;-70
2022/06/20 08:24:48;;;;;;;5.07;1.45;;;16.60;99.90;;;;;;5088800;28;20174;-71
2022/06/20 08:27:23;;;;;;;5.53;1.50;;;16.70;99.90;;;;;;5088450;28;20460;-71
2022/06/20 08:30:01;;;;;;;3.58;1.50;;;16.70;99.90;;;;;;5071770;28;20402;-70
2022/06/20 08:32:45;;;;;;;3.15;1.40;;;16.30;99.90;;;;;;5088341;28;20040;-72
2022/06/20 08:35:21;;;;;;;4.00;1.25;;;16.30;99.90;;;;;;5054581;28;20105;-71
2022/06/20 08:37:59;;;;;;;3.25;1.30;;;16.60;99.90;;;;;;5075320;28;20383;-71
2022/06/20 08:41:09;;;;;;;4.00;1.00;;;16.90;99.90;;;;;;5087938;28;20541;-71
2022/06/20 08:43:53;;;;;;;4.93;1.75;;;17.00;99.90;;;;;;5088158;28;20105;-71
2022/06/20 08:46:42;;;;;;;4.45;1.20;;;16.80;99.90;;;;;;5071818;28;20037;-71
2022/06/20 08:49:47;;;;;;;6.53;1.45;;;16.70;99.90;;;;;;5067386;28;20105;-70
2022/06/20 08:52:49;;;;;;;4.18;1.50;;;16.30;99.90;;;;;;5060406;28;20516;-70
2022/06/20 08:55:35;;;;;;;6.03;1.42;;;16.60;99.90;;;;;;5061760;28;20505;-70
2022/06/20 08:58:31;;;;;;;5.45;1.42;;;16.90;99.90;;;;;;5056880;28;20539;-71
2022/06/20 09:01:32;;;;;;;5.65;1.48;;;16.60;99.90;;;;;;5059069;28;20041;-70
2022/06/20 09:04:19;;;;;;;4.68;1.45;;;16.30;99.90;;;;;;5031318;28;20044;-71
2022/06/20 09:06:51;;;;;;;;;;;16.70;99.90;;;;;;5071463;28;20427;-71
2022/06/20 09:09:39;;;;;;;8.68;1.60;;;16.90;99.90;;;;;;5070644;28;20406;-71
2022/06/20 09:12:31;;;;;;;3.70;1.38;;;16.50;99.90;;;;;;5070633;28;20040;-71
2022/06/20 09:15:09;;;;;;;3.88;1.10;;;16.70;99.90;;;;;;5087320;28;20044;-71
2022/06/20 09:18:06;;;;;;;3.83;1.00;;;16.90;99.90;;;;;;5087272;28;20064;-71
2022/06/20 09:20:41;;;;;;;2.55;0.80;;;17.20;99.90;;;;;;5070542;28;20106;-71
2022/06/20 09:23:13;;;;;;;5.20;1.30;;;17.80;99.90;;;;;;5087559;28;20391;-71
2022/06/20 09:25:54;;;;;;;3.42;1.10;;;17.60;99.90;;;;;;5053427;28;20090;-71
2022/06/20 09:28:47;;;;;;;3.72;1.20;;;17.80;99.90;;;;;;5087655;28;20044;-70
2022/06/20 09:31:31;;;;;;;2.90;1.08;;;17.80;99.90;;;;;;5072594;28;20047;-72
2022/06/20 09:34:34;;;;;;;3.40;1.10;;;18.00;99.90;;;;;;5067691;28;20045;-71
2022/06/20 09:37:09;;;;;;;5.72;1.42;;;18.00;99.90;;;;;;5087091;28;20480;-72
2022/06/20 09:39:49;;;;;;;3.53;1.20;;;18.00;99.90;;;;;;5053353;28;20510;-71
2022/06/20 09:42:22;;;;;;;6.82;1.40;;;18.10;99.90;;;;;;5087291;28;20448;-71
2022/06/20 09:45:06;;;;;;;4.55;1.20;;;17.50;99.90;;;;;;5086826;28;20037;-71
2022/06/20 09:47:36;;;;;;;4.18;1.10;;;17.40;99.90;;;;;;5069909;28;20036;-71
2022/06/20 09:50:17;;;;;;;4.00;1.35;;;17.10;99.90;;;;;;5069873;28;20052;-71
2022/06/20 09:53:10;;;;;;;4.15;1.10;;;16.70;99.90;;;;;;5069884;28;20044;-71
2022/06/20 09:56:05;;;;;;;4.47;1.48;;;17.10;99.90;;;;;;5070282;28;20407;-71
2022/06/20 09:58:53;;;;;;;2.80;1.05;;;17.40;99.90;;;;;;5073010;28;20045;-71
2022/06/20 10:01:41;;;;;;;4.10;1.20;;;17.60;99.90;;;;;;5055789;28;20041;-71
2022/06/20 10:04:27;;;;;;;2.22;0.90;;;17.70;99.90;;;;;;5086661;28;20079;-72
2022/06/20 10:07:12;;;;;;;2.10;0.70;;;17.90;99.90;;;;;;5086786;28;20044;-71
2022/06/20 10:10:06;;;;;;;4.68;1.00;;;18.30;99.90;;;;;;5086501;28;20117;-70
2022/06/20 10:12:38;;;;;;;2.78;0.90;;;17.80;99.90;;;;;;5072241;28;20133;-71
2022/06/20 10:15:13;;;;;;;4.03;1.08;;;17.90;98.60;;;;;;5067850;28;20063;-71
2022/06/20 10:18:26;;;;;;;3.50;1.17;;;18.30;99.90;;;;;;5069384;28;20056;-71
2022/06/20 10:21:03;;;;;;;3.33;1.10;;;17.90;99.90;;;;;;5012059;28;20054;-70
2022/06/20 10:23:39;;;;;;;5.95;1.10;;;18.00;99.90;;;;;;4995479;28;20061;-71
2022/06/20 10:26:30;;;;;;;3.40;1.00;;;18.00;99.90;;;;;;5044887;28;20522;-70
2022/06/20 10:29:08;;;;;;;2.38;0.90;;;18.30;99.90;;;;;;5086103;28;20043;-70
2022/06/20 10:31:51;;;;;;;3.85;1.25;;;18.50;98.10;;;;;;5053211;28;20118;-70
2022/06/20 10:34:19;;;;;;;1.63;0.95;;;18.60;97.70;;;;;;5052664;28;20044;-71
2022/06/20 10:36:52;;;;;;;4.30;1.40;;;18.60;98.10;;;;;;5069512;28;20131;-71
2022/06/20 10:39:43;;;;;;;5.18;1.20;;;18.60;98.20;;;;;;5086160;28;20041;-71
2022/06/20 10:42:33;;;;;;;3.72;1.17;;;18.70;97.20;;;;;;5052744;28;20377;-69
2022/06/20 10:45:32;;;;;;;4.10;1.10;;;18.60;96.90;;;;;;5086437;28;20119;-71
2022/06/20 10:48:19;;;;;;;3.83;1.40;;;18.50;97.80;;;;;;5072624;28;20105;-71
2022/06/20 10:50:48;;;;;;;4.43;1.52;;;18.30;97.00;;;;;;5069073;28;20040;-70
2022/06/20 10:53:30;;;;;;;3.88;1.20;;;18.30;98.20;;;;;;5086129;28;20511;-70
2022/06/20 10:56:22;;;;;;;4.68;1.00;;;18.50;97.40;;;;;;5086107;28;20056;-71
2022/06/20 10:58:57;;;;;;;5.13;1.45;;;17.90;99.60;;;;;;5086091;28;20040;-71
2022/06/20 11:01:50;;;;;;;4.03;1.25;;;17.90;99.50;;;;;;5054917;28;20131;-71
2022/06/20 11:04:26;;;;;;;5.35;1.20;;;18.30;99.60;;;;;;5068970;28;20036;-70
2022/06/20 11:07:15;;;;;;;4.72;1.58;;;18.50;99.90;;;;;;5081897;28;20452;-71
2022/06/20 11:09:40;;;;;;;4.20;1.50;;;18.30;99.00;;;;;;5065411;28;20056;-71
2022/06/20 11:12:06;;;;;;;;;;;18.10;99.20;;;;;;5068846;28;20044;-70
2022/06/20 11:14:50;;;;;;;5.38;1.50;;;18.00;98.70;;;;;;5069317;28;19916;-71
2022/06/20 11:17:30;;;;;;;3.95;1.10;;;18.20;97.90;;;;;;5052040;28;20115;-71
2022/06/20 11:20:09;;;;;;;5.20;1.20;;;18.20;97.20;;;;;;5052216;28;20093;-70
2022/06/20 11:22:41;;;;;;;4.72;1.30;;;18.10;97.10;;;;;;5068891;28;20401;-70
2022/06/20 11:25:24;;;;;;;3.20;1.30;;;17.90;99.50;;;;;;5085919;28;20369;-70
2022/06/20 11:28:24;;;;;;;3.20;1.30;;;17.90;99.50;;;;;;5068809;28;20039;-71
2022/06/20 11:31:28;;;;;;;2.85;1.20;;;17.90;96.90;;;;;;5085717;28;20477;-71
2022/06/20 11:34:32;;;;;;;2.20;1.10;;;18.20;97.90;;;;;;5062922;28;20044;-70
2022/06/20 11:37:07;;;;;;;4.18;1.27;;;18.30;96.50;;;;;;5068773;28;20084;-71
2022/06/20 11:39:50;;;;;;;3.53;1.38;;;18.70;96.50;;;;;;5061008;28;20043;-70
2022/06/20 11:42:19;;;;;;;4.10;1.30;;;18.60;96.20;;;;;;5050597;28;20033;-70
2022/06/20 11:44:53;;;;;;;3.17;1.10;;;18.80;96.60;;;;;;5068500;28;20039;-70
2022/06/20 11:47:43;;;;;;;3.22;1.23;;;18.70;96.10;;;;;;5069533;28;20532;-70
2022/06/20 11:50:25;;;;;;;4.63;1.45;;;18.50;97.30;;;;;;5055569;28;20048;-70
2022/06/20 11:53:21;;;;;;;6.00;1.50;;;18.00;99.90;;;;;;5088909;28;20111;-70
2022/06/20 11:55:49;;;;;;;5.05;1.40;;;17.90;99.90;;;;;;5055640;28;20356;-70
2022/06/20 11:58:28;;;;;;;4.30;1.20;;;17.40;99.90;;;;;;5065073;28;20071;-70
2022/06/20 12:01:02;;;;;;;7.47;1.75;;;17.30;99.90;;;;;;5050565;28;20048;-71
2022/06/20 12:03:42;;;;;;;3.92;1.38;;;17.10;99.90;;;;;;5088881;28;20525;-70
2022/06/20 12:06:22;;;;;;;2.85;1.20;;;17.10;99.90;;;;;;5072006;28;20440;-70
2022/06/20 12:09:13;;;;;;;4.30;1.48;;;17.60;99.90;;;;;;5075087;28;20040;-70
2022/06/20 12:12:00;;;;;;;6.97;1.63;;;17.90;99.90;;;;;;5040990;28;20055;-71
2022/06/20 12:14:50;;;;;;;2.95;1.00;;;17.80;99.90;;;;;;5071759;28;20482;-71
2022/06/20 12:17:28;;;;;;;5.13;1.40;;;17.70;99.90;;;;;;5054828;28;20044;-72
2022/06/20 12:23:38;;;;;;;4.93;1.27;;;17.90;99.90;;;;;;5065025;28;20121;-71
2022/06/20 12:26:31;;;;;;;2.65;1.30;;;18.20;99.90;;;;;;5073604;28;20048;-71
2022/06/20 12:28:59;;;;;;;6.53;1.42;;;18.70;99.90;;;;;;5065613;28;20037;-71
2022/06/20 12:31:39;;;;;;;4.50;1.25;;;18.20;98.50;;;;;;5062251;28;20098;-71
2022/06/20 12:34:19;;;;;;;3.85;1.30;;;17.70;99.90;;;;;;5071427;28;20086;-71
2022/06/20 12:36:51;;;;;;;4.38;1.38;;;17.30;99.90;;;;;;5059056;28;20239;-70
2022/06/20 12:39:26;;;;;;;3.92;1.35;;;17.00;99.90;;;;;;5056005;28;20072;-71
2022/06/20 12:41:56;;;;;;;4.38;1.40;;;16.90;99.90;;;;;;5054217;28;20063;-71
2022/06/20 12:44:33;;;;;;;2.80;1.30;;;17.50;99.90;;;;;;5065652;28;20178;-70
2022/06/20 12:47:36;;;;;;;4.88;1.70;;;17.60;99.90;;;;;;5041936;28;20519;-71
2022/06/20 12:50:35;;;;;;;5.03;1.63;;;17.30;99.90;;;;;;5060725;28;20055;-71
2022/06/20 12:53:09;;;;;;;4.30;1.40;;;17.50;99.90;;;;;;5027726;28;20083;-70
2022/06/20 12:56:19;;;;;;;4.18;1.50;;;17.40;99.90;;;;;;5070836;28;20036;-71
2022/06/20 12:59:08;;;;;;;2.75;1.00;;;17.30;99.90;;;;;;5069772;28;20145;-69
2022/06/20 13:01:59;;;;;;;3.00;1.20;;;17.70;99.90;;;;;;5056641;28;20123;-70
2022/06/20 13:04:38;;;;;;;3.45;1.30;;;18.30;99.90;;;;;;5070529;28;20040;-70
2022/06/20 13:07:15;;;;;;;6.38;1.38;;;18.30;97.70;;;;;;5040197;28;20059;-70
2022/06/20 13:10:00;;;;;;;2.60;1.05;;;18.60;99.90;;;;;;5070681;28;20041;-71
2022/06/20 13:12:41;;;;;;;4.15;1.38;;;18.70;99.90;;;;;;5075585;28;20482;-71
2022/06/20 13:15:34;;;;;;;4.85;1.10;;;18.40;99.90;;;;;;5070616;28;20400;-70
2022/06/20 13:18:22;;;;;;;3.65;1.10;;;18.40;99.80;;;;;;5053779;28;20061;-70
2022/06/20 13:20:54;;;;;;;2.92;1.10;;;18.80;97.10;;;;;;5070566;28;20098;-71
2022/06/20 13:23:44;;;;;;;3.45;1.30;;;18.90;97.80;;;;;;5056742;28;20049;-71
2022/06/20 13:26:42;;;;;;;3.72;1.40;;;19.10;97.10;;;;;;5059691;28;20059;-71
2022/06/20 13:29:39;;;;;;;3.35;1.25;;;19.30;97.80;;;;;;5055948;28;20052;-71
2022/06/20 13:32:32;;;;;;;5.20;1.45;;;18.80;98.40;;;;;;5070448;28;20048;-71
2022/06/20 13:35:12;;;;;;;3.38;1.27;;;18.90;98.60;;;;;;5087137;28;20052;-71
2022/06/20 13:38:03;;;;;;;4.50;1.23;;;18.80;99.40;;;;;;5070066;28;20422;-70
2022/06/20 13:40:50;;;;;;;3.67;1.40;;;18.80;99.90;;;;;;5086074;28;20094;-71
2022/06/20 13:43:42;;;;;;;3.08;1.50;;;18.40;99.90;;;;;;5060124;28;20043;-70
2022/06/20 13:46:32;;;;;;;2.80;1.33;;;18.50;99.90;;;;;;5049771;28;20139;-71
2022/06/20 13:49:17;;;;;;;4.43;1.40;;;18.70;99.90;;;;;;5059485;28;20056;-71
2022/06/20 13:51:49;;;;;;;3.90;1.20;;;18.60;98.70;;;;;;5058871;28;20052;-71
2022/06/20 13:54:22;;;;;;;3.25;1.00;;;18.30;97.80;;;;;;5067632;28;20211;-71
2022/06/20 13:57:14;;;;;;;3.92;1.13;;;18.20;99.80;;;;;;5044284;28;20396;-69
2022/06/20 13:59:57;;;;;;;3.97;1.35;;;18.50;99.90;;;;;;5077254;28;20056;-71